createdAt,value
2024-02-14T00:00:04.823Z,101108.84
2024-02-14T00:02:31.517Z,101107.19
2024-02-14T00:04:58.093Z,101110.53
2024-02-14T00:07:24.614Z,101100.91
2024-02-14T00:09:51.169Z,101093.41
2024-02-14T00:12:17.776Z,101088.09
2024-02-14T00:14:44.541Z,101089.78
2024-02-14T00:17:11.696Z,101087.16
2024-02-14T00:19:38.450Z,101093.22
2024-02-14T00:22:04.981Z,101096.47
2024-02-14T00:24:32.140Z,101096.34
2024-02-14T00:26:59.209Z,101099.81
2024-02-14T00:29:25.820Z,101087.50
2024-02-14T00:31:52.453Z,101082.28
2024-02-14T00:34:19.188Z,101081.34
2024-02-14T00:36:45.808Z,101083.66
2024-02-14T00:39:12.386Z,101075.13
2024-02-14T00:41:38.985Z,101087.94
2024-02-14T00:44:05.713Z,101085.31
2024-02-14T00:46:32.405Z,101077.50
2024-02-14T00:48:59.268Z,101087.13
2024-02-14T00:51:26.138Z,101087.94
2024-02-14T00:53:53.504Z,101084.50
2024-02-14T00:56:20.390Z,101079.19
2024-02-14T00:58:46.965Z,101075.84
2024-02-14T01:01:13.731Z,101069.69
2024-02-14T01:03:40.338Z,101067.09
2024-02-14T01:06:07.089Z,101059.28
2024-02-14T01:08:34.956Z,101054.06
2024-02-14T01:11:01.668Z,101067.00
2024-02-14T01:13:28.308Z,101052.31
2024-02-14T01:15:54.838Z,101057.31
2024-02-14T01:18:21.488Z,101055.63
2024-02-14T01:20:48.211Z,101066.78
2024-02-14T01:23:14.774Z,101061.56
2024-02-14T01:25:43.231Z,101056.28
2024-02-14T01:28:09.987Z,101056.19
2024-02-14T01:30:37.141Z,101056.06
2024-02-14T01:33:07.027Z,101051.06
2024-02-14T01:35:33.846Z,101063.06
2024-02-14T01:38:00.509Z,101046.56
2024-02-14T01:40:27.042Z,101048.25
2024-02-14T01:42:53.692Z,101042.22
2024-02-14T01:45:20.837Z,101040.44
2024-02-14T01:47:47.726Z,101027.50
2024-02-14T01:50:14.489Z,101039.81
2024-02-14T01:52:42.117Z,101044.81
2024-02-14T01:55:09.738Z,101041.38
2024-02-14T01:57:38.588Z,101048.25
2024-02-14T02:00:09.624Z,101045.63
2024-02-14T02:02:41.320Z,101041.19
2024-02-14T02:05:08.114Z,101045.44
2024-02-14T02:07:35.102Z,101037.50
2024-02-14T02:10:01.810Z,101047.03
2024-02-14T02:12:28.854Z,101036.38
2024-02-14T02:14:55.590Z,101045.78
2024-02-14T02:17:22.251Z,101042.31
2024-02-14T02:19:48.953Z,101046.50
2024-02-14T02:22:15.570Z,101048.25
2024-02-14T02:24:42.259Z,101052.56
2024-02-14T02:27:09.243Z,101056.72
2024-02-14T02:29:35.898Z,101057.34
2024-02-14T02:32:02.654Z,101060.81
2024-02-14T02:34:29.422Z,101055.59
2024-02-14T02:36:56.248Z,101064.22
2024-02-14T02:39:22.775Z,101071.13
2024-02-14T02:41:51.394Z,101078.13
2024-02-14T02:44:18.159Z,101061.53
2024-02-14T02:46:47.142Z,101056.22
2024-02-14T02:49:15.344Z,101053.50
2024-02-14T02:51:42.048Z,101068.97
2024-02-14T02:54:09.811Z,101063.63
2024-02-14T02:56:36.433Z,101060.81
2024-02-14T02:59:04.550Z,101050.28
2024-02-14T03:01:39.377Z,101062.19
2024-02-14T03:04:06.249Z,101064.06
2024-02-14T03:06:33.071Z,101053.63
2024-02-14T03:09:00.162Z,101057.59
2024-02-14T03:11:28.025Z,101049.53
2024-02-14T03:13:54.658Z,101044.63
2024-02-14T03:16:21.387Z,101060.09
2024-02-14T03:18:48.126Z,101045.03
2024-02-14T03:21:14.767Z,101049.44
2024-02-14T03:23:42.413Z,101065.00
2024-02-14T03:26:10.300Z,101056.94
2024-02-14T03:28:36.853Z,101056.94
2024-02-14T03:31:03.669Z,101051.66
2024-02-14T03:33:30.613Z,101042.03
2024-02-14T03:35:57.289Z,101048.81
2024-02-14T03:38:27.903Z,101048.81
2024-02-14T03:40:55.338Z,101047.97
2024-02-14T03:43:24.635Z,101043.59
2024-02-14T03:45:52.840Z,101051.53
2024-02-14T03:48:19.538Z,101047.97
2024-02-14T03:50:46.199Z,101059.25
2024-02-14T03:53:12.804Z,101052.56
2024-02-14T03:55:39.373Z,101042.13
2024-02-14T03:58:07.541Z,101051.84
2024-02-14T04:00:34.778Z,101034.44
2024-02-14T04:03:01.522Z,101043.28
2024-02-14T04:05:30.982Z,101035.56
2024-02-14T04:07:57.650Z,101047.06
2024-02-14T04:10:25.176Z,101052.34
2024-02-14T04:12:51.797Z,101056.72
2024-02-14T04:15:18.709Z,101051.72
2024-02-14T04:17:45.418Z,101060.47
2024-02-14T04:20:12.228Z,101055.28
2024-02-14T04:22:38.949Z,101056.09
2024-02-14T04:25:05.950Z,101051.72
2024-02-14T04:27:32.511Z,101051.72
2024-02-14T04:29:59.414Z,101062.88
2024-02-14T04:32:26.319Z,101063.59
2024-02-14T04:34:53.136Z,101061.00
2024-02-14T04:37:20.817Z,101064.34
2024-02-14T04:39:47.888Z,101074.66
2024-02-14T04:42:14.553Z,101076.31
2024-02-14T04:44:41.148Z,101078.03
2024-02-14T04:47:10.782Z,101073.63
2024-02-14T04:49:38.088Z,101083.13
2024-02-14T04:52:05.575Z,101096.06
2024-02-14T04:54:32.101Z,101088.25
2024-02-14T04:57:01.802Z,101089.91
2024-02-14T04:59:29.837Z,101100.34
2024-02-14T05:01:57.518Z,101100.34
2024-02-14T05:04:24.301Z,101099.47
2024-02-14T05:06:52.251Z,101110.34
2024-02-14T05:09:21.352Z,101112.53
2024-02-14T05:11:47.991Z,101101.31
2024-02-14T05:14:14.594Z,101114.94
2024-02-14T05:16:41.781Z,101101.38
2024-02-14T05:19:08.390Z,101108.25
2024-02-14T05:21:35.047Z,101110.88
2024-02-14T05:24:01.776Z,101102.94
2024-02-14T05:26:28.383Z,101113.16
2024-02-14T05:28:55.093Z,101117.44
2024-02-14T05:31:21.836Z,101113.59
2024-02-14T05:33:48.591Z,101103.81
2024-02-14T05:36:15.317Z,101112.38
2024-02-14T05:38:41.902Z,101119.88
2024-02-14T05:41:09.020Z,101103.13
2024-02-14T05:43:35.866Z,101103.22
2024-02-14T05:46:02.525Z,101110.94
2024-02-14T05:48:29.383Z,101101.47
2024-02-14T05:50:56.075Z,101125.94
2024-02-14T05:53:22.665Z,101114.66
2024-02-14T05:55:49.192Z,101114.59
2024-02-14T05:58:16.305Z,101124.28
2024-02-14T06:00:43.027Z,101113.00
2024-02-14T06:03:09.700Z,101129.56
2024-02-14T06:05:36.321Z,101111.13
2024-02-14T06:08:04.350Z,101109.06
2024-02-14T06:10:31.132Z,101115.00
2024-02-14T06:12:58.025Z,101121.88
2024-02-14T06:15:24.782Z,101124.31
2024-02-14T06:17:51.624Z,101125.13
2024-02-14T06:20:18.570Z,101106.69
2024-02-14T06:22:50.665Z,101112.00
2024-02-14T06:25:23.689Z,101125.78
2024-02-14T06:27:51.238Z,101123.88
2024-02-14T06:30:18.735Z,101121.09
2024-02-14T06:32:46.113Z,101120.88
2024-02-14T06:35:16.372Z,101141.66
2024-02-14T06:37:48.821Z,101134.47
2024-02-14T06:40:23.471Z,101136.84
2024-02-14T06:42:51.899Z,101135.81
2024-02-14T06:45:18.792Z,101134.88
2024-02-14T06:47:45.399Z,101121.84
2024-02-14T06:50:12.100Z,101136.47
2024-02-14T06:52:38.655Z,101139.06
2024-02-14T06:55:05.399Z,101137.41
2024-02-14T06:57:31.917Z,101140.84
2024-02-14T06:59:58.534Z,101153.69
2024-02-14T07:02:29.255Z,101159.81
2024-02-14T07:04:56.121Z,101162.31
2024-02-14T07:07:22.684Z,101151.06
2024-02-14T07:09:49.254Z,101155.22
2024-02-14T07:12:15.853Z,101166.72
2024-02-14T07:14:42.639Z,101160.56
2024-02-14T07:17:09.295Z,101166.50
2024-02-14T07:19:36.196Z,101161.38
2024-02-14T07:22:02.784Z,101164.63
2024-02-14T07:24:29.333Z,101169.22
2024-02-14T07:26:55.887Z,101177.75
2024-02-14T07:29:22.564Z,101168.19
2024-02-14T07:31:49.168Z,101174.03
2024-02-14T07:34:16.141Z,101157.22
2024-02-14T07:36:47.209Z,101164.22
2024-02-14T07:39:13.963Z,101161.50
2024-02-14T07:41:40.635Z,101157.75
2024-02-14T07:44:07.556Z,101164.56
2024-02-14T07:46:34.211Z,101165.28
2024-02-14T07:49:00.854Z,101169.66
2024-02-14T07:51:29.901Z,101178.09
2024-02-14T07:53:56.738Z,101175.41
2024-02-14T07:56:23.541Z,101183.88
2024-02-14T07:58:50.979Z,101181.16
2024-02-14T08:01:17.636Z,101192.41
2024-02-14T08:03:44.300Z,101183.66
2024-02-14T08:06:11.018Z,101182.63
2024-02-14T08:08:37.594Z,101187.84
2024-02-14T08:11:04.347Z,101186.06
2024-02-14T08:13:31.012Z,101181.59
2024-02-14T08:15:57.580Z,101191.72
2024-02-14T08:18:24.514Z,101195.13
2024-02-14T08:20:51.474Z,101193.16
2024-02-14T08:23:18.214Z,101191.19
2024-02-14T08:25:44.808Z,101195.25
2024-02-14T08:28:11.626Z,101191.63
2024-02-14T08:30:39.074Z,101198.28
2024-02-14T08:33:05.739Z,101201.44
2024-02-14T08:35:33.908Z,101209.75
2024-02-14T08:38:01.685Z,101204.31
2024-02-14T08:40:28.714Z,101201.50
2024-02-14T08:42:55.272Z,101209.25
2024-02-14T08:45:21.817Z,101220.19
2024-02-14T08:47:48.554Z,101207.66
2024-02-14T08:50:15.462Z,101212.56
2024-02-14T08:52:42.197Z,101204.50
2024-02-14T08:55:15.430Z,101203.38
2024-02-14T08:57:42.353Z,101195.31
2024-02-14T09:00:11.631Z,101200.31
2024-02-14T09:02:38.497Z,101193.03
2024-02-14T09:05:07.088Z,101200.53
2024-02-14T09:07:34.959Z,101197.50
2024-02-14T09:10:01.572Z,101191.50
2024-02-14T09:12:28.254Z,101197.84
2024-02-14T09:14:54.894Z,101204.19
2024-02-14T09:17:21.494Z,101203.97
2024-02-14T09:19:48.480Z,101205.09
2024-02-14T09:22:19.562Z,101209.25
2024-02-14T09:24:46.130Z,101204.75
2024-02-14T09:27:14.524Z,101202.75
2024-02-14T09:29:42.120Z,101210.34
2024-02-14T09:32:09.074Z,101215.50
2024-02-14T09:34:36.116Z,101214.53
2024-02-14T09:37:02.868Z,101221.84
2024-02-14T09:39:29.427Z,101219.31
2024-02-14T09:42:03.351Z,101226.94
2024-02-14T09:44:30.096Z,101229.34
2024-02-14T09:46:58.006Z,101237.91
2024-02-14T09:49:25.728Z,101231.00
2024-02-14T09:51:53.335Z,101231.84
2024-02-14T09:54:22.400Z,101238.00
2024-02-14T09:56:51.940Z,101251.94
2024-02-14T09:59:19.122Z,101252.66
2024-02-14T10:01:47.075Z,101237.91
2024-02-14T10:04:14.146Z,101249.09
2024-02-14T10:06:40.766Z,101242.81
2024-02-14T10:09:08.972Z,101245.19
2024-02-14T10:11:36.372Z,101243.28
2024-02-14T10:14:05.520Z,101246.66
2024-02-14T10:16:32.616Z,101249.75
2024-02-14T10:18:59.612Z,101248.44
2024-02-14T10:21:27.183Z,101244.91
2024-02-14T10:23:54.405Z,101255.97
2024-02-14T10:26:21.678Z,101255.16
2024-02-14T10:28:50.401Z,101254.28
2024-02-14T10:31:17.674Z,101253.84
2024-02-14T10:33:44.798Z,101265.97
2024-02-14T10:36:13.821Z,101256.47
2024-02-14T10:38:41.186Z,101258.84
2024-02-14T10:41:11.019Z,101271.22
2024-02-14T10:43:40.205Z,101255.84
2024-02-14T10:46:13.761Z,101262.63
2024-02-14T10:48:40.956Z,101266.91
2024-02-14T10:51:11.351Z,101253.81
2024-02-14T10:53:43.412Z,101249.41
2024-02-14T10:56:10.735Z,101263.22
2024-02-14T10:58:37.928Z,101270.34
2024-02-14T11:01:04.779Z,101264.63
2024-02-14T11:03:32.267Z,101258.91
2024-02-14T11:06:04.976Z,101265.50
2024-02-14T11:08:33.373Z,101259.44
2024-02-14T11:11:01.549Z,101254.19
2024-02-14T11:13:30.427Z,101247.75
2024-02-14T11:15:58.206Z,101259.25
2024-02-14T11:18:32.005Z,101261.25
2024-02-14T11:20:59.061Z,101248.63
2024-02-14T11:23:27.566Z,101249.59
2024-02-14T11:26:05.228Z,101254.03
2024-02-14T11:28:32.043Z,101261.28
2024-02-14T11:31:04.687Z,101250.56
2024-02-14T11:33:32.062Z,101260.22
2024-02-14T11:36:00.041Z,101256.28
2024-02-14T11:38:27.413Z,101259.00
2024-02-14T11:41:00.303Z,101254.13
2024-02-14T11:43:28.062Z,101255.63
2024-02-14T11:45:54.967Z,101258.47
2024-02-14T11:48:22.552Z,101255.63
2024-02-14T11:50:49.546Z,101246.84
2024-02-14T11:53:20.300Z,101252.19
2024-02-14T11:55:50.486Z,101251.34
2024-02-14T11:58:19.081Z,101257.41
2024-02-14T12:00:47.254Z,101243.38
2024-02-14T12:03:23.072Z,101250.06
2024-02-14T12:05:52.214Z,101251.94
2024-02-14T12:08:19.399Z,101252.28
2024-02-14T12:10:53.023Z,101256.31
2024-02-14T12:13:22.315Z,101261.13
2024-02-14T12:15:50.630Z,101250.19
2024-02-14T12:18:19.628Z,101243.88
2024-02-14T12:20:47.018Z,101244.81
2024-02-14T12:23:22.511Z,101240.53
2024-02-14T12:25:49.435Z,101228.63
2024-02-14T12:28:20.443Z,101234.47
2024-02-14T12:30:50.672Z,101228.09
2024-02-14T12:33:18.158Z,101234.97
2024-02-14T12:35:49.079Z,101230.47
2024-02-14T12:38:17.926Z,101220.63
2024-02-14T12:40:45.677Z,101221.94
2024-02-14T12:43:13.219Z,101226.84
2024-02-14T12:45:40.823Z,101225.56
2024-02-14T12:48:11.899Z,101230.53
2024-02-14T12:50:39.381Z,101211.53
2024-02-14T12:53:07.835Z,101206.91
2024-02-14T12:55:34.705Z,101211.72
2024-02-14T12:58:01.928Z,101206.97
2024-02-14T13:00:28.855Z,101202.34
2024-02-14T13:02:55.628Z,101207.09
2024-02-14T13:05:22.293Z,101208.75
2024-02-14T13:07:48.927Z,101214.75
2024-02-14T13:10:15.483Z,101204.97
2024-02-14T13:12:44.688Z,101201.91
2024-02-14T13:15:11.684Z,101199.28
2024-02-14T13:17:38.960Z,101199.03
2024-02-14T13:20:07.072Z,101194.66
2024-02-14T13:22:34.098Z,101204.78
2024-02-14T13:25:04.226Z,101213.19
2024-02-14T13:27:30.797Z,101212.28
2024-02-14T13:29:57.388Z,101218.22
2024-02-14T13:32:24.012Z,101214.28
2024-02-14T13:34:50.645Z,101221.91
2024-02-14T13:37:17.567Z,101210.94
2024-02-14T13:39:45.039Z,101204.88
2024-02-14T13:42:11.718Z,101201.41
2024-02-14T13:44:38.364Z,101199.66
2024-02-14T13:47:05.184Z,101203.78
2024-02-14T13:49:31.947Z,101207.09
2024-02-14T13:51:59.362Z,101210.06
2024-02-14T13:54:26.122Z,101204.13
2024-02-14T13:56:53.267Z,101203.16
2024-02-14T13:59:19.908Z,101196.25
2024-02-14T14:01:48.081Z,101198.50
2024-02-14T14:04:15.143Z,101204.81
2024-02-14T14:06:42.162Z,101198.84
2024-02-14T14:09:09.869Z,101197.41
2024-02-14T14:11:36.532Z,101198.47
2024-02-14T14:14:03.192Z,101207.75
2024-02-14T14:16:29.755Z,101206.63
2024-02-14T14:18:56.555Z,101206.00
2024-02-14T14:21:23.380Z,101212.97
2024-02-14T14:23:50.011Z,101212.38
2024-02-14T14:26:16.864Z,101212.59
2024-02-14T14:28:43.746Z,101211.78
2024-02-14T14:31:12.978Z,101198.19
2024-02-14T14:33:40.036Z,101200.19
2024-02-14T14:36:07.554Z,101200.28
2024-02-14T14:38:34.410Z,101194.47
2024-02-14T14:41:01.055Z,101206.69
2024-02-14T14:43:29.121Z,101202.41
2024-02-14T14:45:58.090Z,101212.78
2024-02-14T14:48:25.185Z,101205.84
2024-02-14T14:50:51.973Z,101203.84
2024-02-14T14:53:18.880Z,101202.91
2024-02-14T14:55:58.730Z,101206.25
2024-02-14T14:58:28.702Z,101193.28
2024-02-14T15:00:57.128Z,101202.47
2024-02-14T15:03:24.617Z,101204.97
2024-02-14T15:05:51.564Z,101202.38
2024-02-14T15:08:20.484Z,101205.94
2024-02-14T15:10:47.201Z,101204.97
2024-02-14T15:13:14.500Z,101201.09
2024-02-14T15:15:41.209Z,101185.16
2024-02-14T15:18:08.027Z,101190.91
2024-02-14T15:20:37.285Z,101194.94
2024-02-14T15:23:04.285Z,101199.97
2024-02-14T15:25:30.935Z,101198.16
2024-02-14T15:27:58.212Z,101193.69
2024-02-14T15:30:44.512Z,101181.19
2024-02-14T15:33:24.506Z,101189.53
2024-02-14T15:35:55.804Z,101189.28
2024-02-14T15:38:24.014Z,101195.13
2024-02-14T15:40:58.408Z,101197.66
2024-02-14T15:43:26.347Z,101201.06
2024-02-14T15:45:53.156Z,101189.78
2024-02-14T15:48:20.856Z,101197.53
2024-02-14T15:50:48.428Z,101200.03
2024-02-14T15:53:16.425Z,101207.25
2024-02-14T15:55:43.710Z,101197.75
2024-02-14T15:58:16.635Z,101201.22
2024-02-14T16:00:43.174Z,101199.41
2024-02-14T16:03:11.381Z,101202.88
2024-02-14T16:05:38.321Z,101198.34
2024-02-14T16:08:05.488Z,101199.91
2024-02-14T16:10:32.045Z,101201.59
2024-02-14T16:12:59.249Z,101198.25
2024-02-14T16:15:26.060Z,101200.88
2024-02-14T16:17:52.809Z,101200.16
2024-02-14T16:20:22.797Z,101206.22
2024-02-14T16:22:50.038Z,101209.66
2024-02-14T16:25:16.735Z,101202.63
2024-02-14T16:27:43.366Z,101197.41
2024-02-14T16:30:10.320Z,101194.78
2024-02-14T16:32:37.483Z,101193.97
2024-02-14T16:35:05.992Z,101199.31
2024-02-14T16:37:32.819Z,101206.22
2024-02-14T16:39:59.730Z,101208.72
2024-02-14T16:42:26.660Z,101201.81
2024-02-14T16:44:53.741Z,101202.63
2024-02-14T16:47:20.560Z,101213.00
2024-02-14T16:49:47.189Z,101212.28
2024-02-14T16:52:13.821Z,101208.81
2024-02-14T16:54:40.423Z,101207.06
2024-02-14T16:57:10.538Z,101205.25
2024-02-14T16:59:38.685Z,101213.09
2024-02-14T17:02:07.301Z,101205.16
2024-02-14T17:04:35.068Z,101214.78
2024-02-14T17:07:02.225Z,101207.66
2024-02-14T17:09:29.087Z,101218.00
2024-02-14T17:11:55.705Z,101217.03
2024-02-14T17:14:27.243Z,101225.63
2024-02-14T17:16:57.794Z,101228.97
2024-02-14T17:19:25.562Z,101228.72
2024-02-14T17:21:52.458Z,101229.44
2024-02-14T17:24:19.614Z,101236.25
2024-02-14T17:26:46.864Z,101241.38
2024-02-14T17:29:13.790Z,101224.94
2024-02-14T17:31:40.892Z,101243.75
2024-02-14T17:34:07.886Z,101241.13
2024-02-14T17:36:35.594Z,101232.22
2024-02-14T17:39:06.236Z,101242.59
2024-02-14T17:41:36.523Z,101247.09
2024-02-14T17:44:04.302Z,101256.63
2024-02-14T17:46:31.253Z,101255.06
2024-02-14T17:48:57.952Z,101253.75
2024-02-14T17:51:27.908Z,101257.56
2024-02-14T17:53:55.203Z,101264.25
2024-02-14T17:56:22.864Z,101267.81
2024-02-14T17:58:49.461Z,101263.03
2024-02-14T18:01:16.259Z,101271.13
2024-02-14T18:03:42.910Z,101269.66
2024-02-14T18:06:10.113Z,101260.72
2024-02-14T18:08:37.063Z,101271.53
2024-02-14T18:11:04.295Z,101267.78
2024-02-14T18:13:31.447Z,101266.47
2024-02-14T18:15:58.065Z,101251.22
2024-02-14T18:18:24.813Z,101265.34
2024-02-14T18:20:52.051Z,101264.50
2024-02-14T18:23:19.125Z,101260.75
2024-02-14T18:25:46.330Z,101256.31
2024-02-14T18:28:13.067Z,101246.91
2024-02-14T18:30:39.681Z,101255.03
2024-02-14T18:33:12.293Z,101263.31
2024-02-14T18:35:40.194Z,101267.25
2024-02-14T18:38:09.845Z,101274.03
2024-02-14T18:40:40.093Z,101281.56
2024-02-14T18:43:07.490Z,101268.47
2024-02-14T18:45:34.088Z,101280.38
2024-02-14T18:48:01.009Z,101273.34
2024-02-14T18:50:27.758Z,101267.38
2024-02-14T18:52:55.060Z,101275.03
2024-02-14T18:55:21.752Z,101255.16
2024-02-14T18:57:48.834Z,101263.00
2024-02-14T19:00:15.720Z,101262.28
2024-02-14T19:02:43.923Z,101270.34
2024-02-14T19:05:10.810Z,101272.34
2024-02-14T19:07:40.413Z,101287.13
2024-02-14T19:10:07.658Z,101269.97
2024-02-14T19:12:34.288Z,101273.63
2024-02-14T19:15:06.927Z,101272.06
2024-02-14T19:17:35.277Z,101273.88
2024-02-14T19:20:05.182Z,101273.03
2024-02-14T19:22:33.384Z,101271.59
2024-02-14T19:25:01.223Z,101280.06
2024-02-14T19:27:28.245Z,101287.19
2024-02-14T19:29:54.906Z,101290.72
2024-02-14T19:32:21.640Z,101292.75
2024-02-14T19:34:48.310Z,101290.25
2024-02-14T19:37:14.914Z,101298.91
2024-02-14T19:39:41.469Z,101292.97
2024-02-14T19:42:08.876Z,101289.38
2024-02-14T19:44:35.481Z,101277.16
2024-02-14T19:47:02.110Z,101285.09
2024-02-14T19:49:28.856Z,101287.72
2024-02-14T19:51:55.991Z,101294.75
2024-02-14T19:54:23.125Z,101283.44
2024-02-14T19:56:50.782Z,101287.63
2024-02-14T19:59:17.801Z,101274.53
2024-02-14T20:01:44.923Z,101288.44
2024-02-14T20:04:12.883Z,101301.31
2024-02-14T20:06:40.551Z,101295.56
2024-02-14T20:09:08.546Z,101294.84
2024-02-14T20:11:35.322Z,101295.53
2024-02-14T20:14:02.296Z,101300.41
2024-02-14T20:16:29.032Z,101287.56
2024-02-14T20:18:56.130Z,101292.66
2024-02-14T20:21:24.325Z,101280.88
2024-02-14T20:23:51.049Z,101289.25
2024-02-14T20:26:17.988Z,101290.66
2024-02-14T20:28:45.155Z,101292.25
2024-02-14T20:31:11.881Z,101277.81
2024-02-14T20:33:38.675Z,101280.94
2024-02-14T20:36:06.283Z,101285.25
2024-02-14T20:38:32.995Z,101282.50
2024-02-14T20:41:05.754Z,101285.09
2024-02-14T20:43:32.357Z,101285.97
2024-02-14T20:45:58.941Z,101301.53
2024-02-14T20:48:25.883Z,101293.81
2024-02-14T20:50:52.666Z,101298.00
2024-02-14T20:53:19.442Z,101298.81
2024-02-14T20:55:46.522Z,101295.13
2024-02-14T20:58:13.255Z,101291.19
2024-02-14T21:00:40.792Z,101292.75
2024-02-14T21:03:07.793Z,101294.09
2024-02-14T21:05:34.647Z,101306.31
2024-02-14T21:08:01.281Z,101293.22
2024-02-14T21:10:28.892Z,101302.41
2024-02-14T21:12:55.654Z,101303.38
2024-02-14T21:15:22.239Z,101312.69
2024-02-14T21:17:49.098Z,101298.84
2024-02-14T21:20:16.030Z,101308.88
2024-02-14T21:22:42.666Z,101306.03
2024-02-14T21:25:11.605Z,101304.97
2024-02-14T21:27:38.632Z,101302.34
2024-02-14T21:30:07.160Z,101302.16
2024-02-14T21:32:33.929Z,101306.44
2024-02-14T21:35:00.577Z,101308.91
2024-02-14T21:37:27.177Z,101300.13
2024-02-14T21:39:53.756Z,101306.91
2024-02-14T21:42:21.125Z,101292.78
2024-02-14T21:44:47.774Z,101301.69
2024-02-14T21:47:15.054Z,101301.34
2024-02-14T21:49:43.393Z,101295.28
2024-02-14T21:52:10.113Z,101299.47
2024-02-14T21:54:37.546Z,101301.94
2024-02-14T21:57:05.700Z,101300.28
2024-02-14T21:59:32.409Z,101295.91
2024-02-14T22:01:59.187Z,101300.38
2024-02-14T22:04:26.003Z,101302.66
2024-02-14T22:06:52.804Z,101300.28
2024-02-14T22:09:21.966Z,101301.84
2024-02-14T22:11:49.266Z,101310.31
2024-02-14T22:14:16.130Z,101299.59
2024-02-14T22:16:43.209Z,101298.66
2024-02-14T22:19:11.875Z,101301.16
2024-02-14T22:21:38.732Z,101290.78
2024-02-14T22:24:06.389Z,101301.16
2024-02-14T22:26:33.155Z,101299.25
2024-02-14T22:28:59.974Z,101289.50
2024-02-14T22:31:30.110Z,101292.84
2024-02-14T22:33:58.075Z,101300.47
2024-02-14T22:36:26.305Z,101301.41
2024-02-14T22:38:53.445Z,101298.69
2024-02-14T22:41:23.040Z,101290.84
2024-02-14T22:43:53.980Z,101298.69
2024-02-14T22:46:20.927Z,101297.00
2024-02-14T22:48:48.407Z,101295.94
2024-02-14T22:51:17.861Z,101297.84
2024-02-14T22:53:44.457Z,101301.31
2024-02-14T22:56:11.319Z,101297.75
2024-02-14T22:58:39.275Z,101301.91
2024-02-14T23:01:06.717Z,101309.75
2024-02-14T23:03:33.762Z,101310.69
2024-02-14T23:06:03.181Z,101303.94
2024-02-14T23:08:29.782Z,101301.53
2024-02-14T23:10:56.385Z,101297.34
2024-02-14T23:13:23.007Z,101305.19
2024-02-14T23:15:52.946Z,101291.63
2024-02-14T23:18:20.703Z,101303.44
2024-02-14T23:20:48.389Z,101289.13
2024-02-14T23:23:15.360Z,101298.19
2024-02-14T23:25:42.054Z,101308.78
2024-02-14T23:28:08.627Z,101301.78
2024-02-14T23:30:36.315Z,101301.53
2024-02-14T23:33:03.566Z,101309.19
2024-02-14T23:35:30.394Z,101299.16
2024-02-14T23:37:57.626Z,101297.75
2024-02-14T23:40:24.370Z,101308.22
2024-02-14T23:42:50.918Z,101311.66
2024-02-14T23:45:17.721Z,101301.19
2024-02-14T23:47:44.407Z,101297.13
2024-02-14T23:50:11.901Z,101309.75
2024-02-14T23:52:39.840Z,101315.13
2024-02-14T23:55:06.915Z,101316.78
2024-02-14T23:57:33.557Z,101300.72
